sensor_id;sensor_type;location;lat;lon;timestamp;P1;durP1;ratioP1;P2;durP2;ratioP2
59516;SDS011;45342;42.662;27.718;2022-08-19T00:02:40;13.93;;;12.52;;
59516;SDS011;45342;42.662;27.718;2022-08-19T00:05:09;15.32;;;12.68;;
59516;SDS011;45342;42.662;27.718;2022-08-19T00:07:36;15.30;;;12.75;;
59516;SDS011;45342;42.662;27.718;2022-08-19T00:10:05;17.13;;;12.90;;
59516;SDS011;45342;42.662;27.718;2022-08-19T00:12:32;14.02;;;12.60;;
59516;SDS011;45342;42.662;27.718;2022-08-19T00:14:59;13.85;;;12.30;;
59516;SDS011;45342;42.662;27.718;2022-08-19T00:17:24;16.63;;;12.68;;
59516;SDS011;45342;42.662;27.718;2022-08-19T00:19:50;13.40;;;12.02;;
59516;SDS011;45342;42.662;27.718;2022-08-19T00:22:16;16.50;;;12.98;;
59516;SDS011;45342;42.662;27.718;2022-08-19T00:24:45;14.77;;;13.15;;
59516;SDS011;45342;42.662;27.718;2022-08-19T00:27:12;13.88;;;12.38;;
59516;SDS011;45342;42.662;27.718;2022-08-19T00:29:38;14.32;;;12.63;;
59516;SDS011;45342;42.662;27.718;2022-08-19T00:32:04;15.25;;;12.75;;
59516;SDS011;45342;42.662;27.718;2022-08-19T00:34:30;15.32;;;12.63;;
59516;SDS011;45342;42.662;27.718;2022-08-19T00:36:56;14.23;;;12.00;;
59516;SDS011;45342;42.662;27.718;2022-08-19T00:39:22;15.07;;;12.57;;
59516;SDS011;45342;42.662;27.718;2022-08-19T00:41:50;13.77;;;12.25;;
59516;SDS011;45342;42.662;27.718;2022-08-19T00:44:20;13.90;;;12.50;;
59516;SDS011;45342;42.662;27.718;2022-08-19T00:46:49;15.02;;;12.85;;
59516;SDS011;45342;42.662;27.718;2022-08-19T00:49:20;13.80;;;12.30;;
59516;SDS011;45342;42.662;27.718;2022-08-19T00:51:51;15.75;;;13.02;;
59516;SDS011;45342;42.662;27.718;2022-08-19T00:54:23;15.00;;;12.40;;
59516;SDS011;45342;42.662;27.718;2022-08-19T00:56:49;15.73;;;12.95;;
59516;SDS011;45342;42.662;27.718;2022-08-19T00:59:16;14.65;;;12.70;;
59516;SDS011;45342;42.662;27.718;2022-08-19T01:01:43;13.70;;;12.25;;
59516;SDS011;45342;42.662;27.718;2022-08-19T01:04:10;14.23;;;12.18;;
59516;SDS011;45342;42.662;27.718;2022-08-19T01:06:36;15.00;;;13.27;;
59516;SDS011;45342;42.662;27.718;2022-08-19T01:09:02;15.35;;;13.07;;
59516;SDS011;45342;42.662;27.718;2022-08-19T01:11:29;15.23;;;13.30;;
59516;SDS011;45342;42.662;27.718;2022-08-19T01:13:57;14.35;;;12.68;;
59516;SDS011;45342;42.662;27.718;2022-08-19T01:16:24;15.30;;;12.80;;
59516;SDS011;45342;42.662;27.718;2022-08-19T01:18:50;13.93;;;12.43;;
59516;SDS011;45342;42.662;27.718;2022-08-19T01:23:47;13.80;;;12.40;;
59516;SDS011;45342;42.662;27.718;2022-08-19T01:26:15;14.13;;;12.65;;
59516;SDS011;45342;42.662;27.718;2022-08-19T01:28:48;13.98;;;12.48;;
59516;SDS011;45342;42.662;27.718;2022-08-19T01:31:17;15.63;;;12.75;;
59516;SDS011;45342;42.662;27.718;2022-08-19T01:33:48;15.70;;;13.25;;
59516;SDS011;45342;42.662;27.718;2022-08-19T01:36:16;13.82;;;12.43;;
59516;SDS011;45342;42.662;27.718;2022-08-19T01:38:48;14.48;;;12.27;;
59516;SDS011;45342;42.662;27.718;2022-08-19T01:41:14;13.82;;;11.93;;
59516;SDS011;45342;42.662;27.718;2022-08-19T01:43:41;14.07;;;12.55;;
59516;SDS011;45342;42.662;27.718;2022-08-19T01:46:06;13.63;;;12.10;;
59516;SDS011;45342;42.662;27.718;2022-08-19T01:48:36;12.80;;;11.45;;
59516;SDS011;45342;42.662;27.718;2022-08-19T01:51:03;15.77;;;12.93;;
59516;SDS011;45342;42.662;27.718;2022-08-19T01:53:29;14.93;;;13.32;;
59516;SDS011;45342;42.662;27.718;2022-08-19T01:58:22;17.67;;;13.38;;
59516;SDS011;45342;42.662;27.718;2022-08-19T02:00:50;14.70;;;13.10;;
59516;SDS011;45342;42.662;27.718;2022-08-19T02:06:00;13.60;;;12.20;;
59516;SDS011;45342;42.662;27.718;2022-08-19T02:08:28;14.55;;;11.75;;
59516;SDS011;45342;42.662;27.718;2022-08-19T02:10:54;15.85;;;13.27;;
59516;SDS011;45342;42.662;27.718;2022-08-19T02:13:21;14.35;;;12.77;;
59516;SDS011;45342;42.662;27.718;2022-08-19T02:18:12;14.00;;;12.50;;
59516;SDS011;45342;42.662;27.718;2022-08-19T02:20:38;15.07;;;13.02;;
59516;SDS011;45342;42.662;27.718;2022-08-19T02:23:05;13.38;;;12.00;;
59516;SDS011;45342;42.662;27.718;2022-08-19T02:25:31;14.40;;;12.90;;
59516;SDS011;45342;42.662;27.718;2022-08-19T02:30:23;14.10;;;12.30;;
59516;SDS011;45342;42.662;27.718;2022-08-19T02:32:50;13.63;;;12.23;;
59516;SDS011;45342;42.662;27.718;2022-08-19T02:35:16;15.93;;;12.63;;
59516;SDS011;45342;42.662;27.718;2022-08-19T02:37:42;15.23;;;12.98;;
59516;SDS011;45342;42.662;27.718;2022-08-19T02:40:27;15.10;;;12.90;;
59516;SDS011;45342;42.662;27.718;2022-08-19T02:42:54;15.63;;;13.15;;
59516;SDS011;45342;42.662;27.718;2022-08-19T02:47:45;15.43;;;13.02;;
59516;SDS011;45342;42.662;27.718;2022-08-19T02:52:37;15.18;;;13.25;;
59516;SDS011;45342;42.662;27.718;2022-08-19T02:55:03;14.05;;;12.35;;
59516;SDS011;45342;42.662;27.718;2022-08-19T02:57:30;14.48;;;12.55;;
59516;SDS011;45342;42.662;27.718;2022-08-19T02:59:59;14.48;;;12.65;;
59516;SDS011;45342;42.662;27.718;2022-08-19T03:02:26;14.25;;;12.75;;
59516;SDS011;45342;42.662;27.718;2022-08-19T03:07:18;14.30;;;12.65;;
59516;SDS011;45342;42.662;27.718;2022-08-19T03:09:43;16.48;;;12.88;;
59516;SDS011;45342;42.662;27.718;2022-08-19T03:12:09;16.90;;;13.55;;
59516;SDS011;45342;42.662;27.718;2022-08-19T03:14:35;18.10;;;12.80;;
59516;SDS011;45342;42.662;27.718;2022-08-19T03:17:01;14.30;;;12.40;;
59516;SDS011;45342;42.662;27.718;2022-08-19T03:19:28;16.13;;;12.65;;
59516;SDS011;45342;42.662;27.718;2022-08-19T03:24:20;18.30;;;13.17;;
59516;SDS011;45342;42.662;27.718;2022-08-19T03:29:12;13.75;;;12.35;;
59516;SDS011;45342;42.662;27.718;2022-08-19T03:31:39;14.95;;;12.65;;
59516;SDS011;45342;42.662;27.718;2022-08-19T03:34:08;13.57;;;12.15;;
59516;SDS011;45342;42.662;27.718;2022-08-19T03:36:36;15.48;;;12.50;;
59516;SDS011;45342;42.662;27.718;2022-08-19T03:41:38;13.55;;;12.15;;
59516;SDS011;45342;42.662;27.718;2022-08-19T03:44:05;13.57;;;12.07;;
59516;SDS011;45342;42.662;27.718;2022-08-19T03:46:34;14.90;;;13.07;;
59516;SDS011;45342;42.662;27.718;2022-08-19T03:49:03;14.05;;;12.55;;
59516;SDS011;45342;42.662;27.718;2022-08-19T03:51:34;14.25;;;12.38;;
59516;SDS011;45342;42.662;27.718;2022-08-19T03:54:01;14.75;;;12.25;;
59516;SDS011;45342;42.662;27.718;2022-08-19T03:56:29;14.32;;;12.80;;
59516;SDS011;45342;42.662;27.718;2022-08-19T03:58:55;14.02;;;12.52;;
59516;SDS011;45342;42.662;27.718;2022-08-19T04:01:22;14.63;;;12.52;;
59516;SDS011;45342;42.662;27.718;2022-08-19T04:03:51;15.02;;;13.15;;
59516;SDS011;45342;42.662;27.718;2022-08-19T04:06:19;13.23;;;11.85;;
59516;SDS011;45342;42.662;27.718;2022-08-19T04:08:48;15.02;;;12.23;;
59516;SDS011;45342;42.662;27.718;2022-08-19T04:11:17;13.52;;;11.93;;
59516;SDS011;45342;42.662;27.718;2022-08-19T04:13:46;14.00;;;12.20;;
59516;SDS011;45342;42.662;27.718;2022-08-19T04:18:38;16.15;;;12.98;;
59516;SDS011;45342;42.662;27.718;2022-08-19T04:21:04;13.85;;;12.43;;
59516;SDS011;45342;42.662;27.718;2022-08-19T04:23:31;14.93;;;11.95;;
59516;SDS011;45342;42.662;27.718;2022-08-19T04:28:22;14.55;;;12.32;;
59516;SDS011;45342;42.662;27.718;2022-08-19T04:30:49;13.93;;;12.00;;
59516;SDS011;45342;42.662;27.718;2022-08-19T04:33:17;14.10;;;12.57;;
59516;SDS011;45342;42.662;27.718;2022-08-19T04:35:46;13.88;;;12.45;;
59516;SDS011;45342;42.662;27.718;2022-08-19T04:38:13;13.40;;;11.93;;
59516;SDS011;45342;42.662;27.718;2022-08-19T04:40:45;13.77;;;12.35;;
59516;SDS011;45342;42.662;27.718;2022-08-19T04:43:31;14.38;;;11.95;;
59516;SDS011;45342;42.662;27.718;2022-08-19T04:45:57;14.13;;;12.35;;
59516;SDS011;45342;42.662;27.718;2022-08-19T04:50:55;13.60;;;11.77;;
59516;SDS011;45342;42.662;27.718;2022-08-19T04:55:54;13.65;;;12.25;;
59516;SDS011;45342;42.662;27.718;2022-08-19T04:58:25;15.50;;;12.63;;
59516;SDS011;45342;42.662;27.718;2022-08-19T05:00:52;14.70;;;12.32;;
59516;SDS011;45342;42.662;27.718;2022-08-19T05:03:18;13.85;;;12.13;;
59516;SDS011;45342;42.662;27.718;2022-08-19T05:08:10;16.33;;;12.23;;
59516;SDS011;45342;42.662;27.718;2022-08-19T05:10:37;15.93;;;12.10;;
59516;SDS011;45342;42.662;27.718;2022-08-19T05:13:04;14.38;;;12.48;;
59516;SDS011;45342;42.662;27.718;2022-08-19T05:17:55;14.07;;;12.20;;
59516;SDS011;45342;42.662;27.718;2022-08-19T05:20:39;14.75;;;12.15;;
59516;SDS011;45342;42.662;27.718;2022-08-19T05:23:23;14.40;;;12.30;;
59516;SDS011;45342;42.662;27.718;2022-08-19T05:28:15;12.90;;;11.43;;
59516;SDS011;45342;42.662;27.718;2022-08-19T05:35:36;14.27;;;12.43;;
59516;SDS011;45342;42.662;27.718;2022-08-19T05:38:02;14.50;;;12.02;;
59516;SDS011;45342;42.662;27.718;2022-08-19T05:40:28;13.43;;;12.02;;
59516;SDS011;45342;42.662;27.718;2022-08-19T05:45:19;13.93;;;12.07;;
59516;SDS011;45342;42.662;27.718;2022-08-19T05:47:47;13.55;;;12.15;;
59516;SDS011;45342;42.662;27.718;2022-08-19T05:50:13;13.85;;;12.40;;
59516;SDS011;45342;42.662;27.718;2022-08-19T05:55:04;13.07;;;11.68;;
59516;SDS011;45342;42.662;27.718;2022-08-19T05:57:31;12.23;;;10.95;;
59516;SDS011;45342;42.662;27.718;2022-08-19T06:02:25;16.05;;;12.13;;
59516;SDS011;45342;42.662;27.718;2022-08-19T06:04:52;13.93;;;11.25;;
59516;SDS011;45342;42.662;27.718;2022-08-19T06:09:45;14.02;;;11.40;;
59516;SDS011;45342;42.662;27.718;2022-08-19T06:14:36;12.98;;;11.35;;
59516;SDS011;45342;42.662;27.718;2022-08-19T06:17:02;13.40;;;12.00;;
59516;SDS011;45342;42.662;27.718;2022-08-19T06:19:28;12.07;;;10.88;;
59516;SDS011;45342;42.662;27.718;2022-08-19T06:21:55;15.00;;;11.85;;
59516;SDS011;45342;42.662;27.718;2022-08-19T06:24:23;13.55;;;12.10;;
59516;SDS011;45342;42.662;27.718;2022-08-19T06:26:52;13.00;;;11.65;;
59516;SDS011;45342;42.662;27.718;2022-08-19T06:29:19;13.55;;;12.07;;
59516;SDS011;45342;42.662;27.718;2022-08-19T06:31:50;12.73;;;11.30;;
59516;SDS011;45342;42.662;27.718;2022-08-19T06:34:17;13.68;;;11.30;;
59516;SDS011;45342;42.662;27.718;2022-08-19T06:36:45;13.52;;;11.73;;
59516;SDS011;45342;42.662;27.718;2022-08-19T06:39:17;13.73;;;11.82;;
59516;SDS011;45342;42.662;27.718;2022-08-19T06:41:46;13.00;;;10.98;;
59516;SDS011;45342;42.662;27.718;2022-08-19T06:44:14;13.45;;;11.52;;
59516;SDS011;45342;42.662;27.718;2022-08-19T06:46:41;11.95;;;10.70;;
59516;SDS011;45342;42.662;27.718;2022-08-19T06:49:07;14.02;;;11.57;;
59516;SDS011;45342;42.662;27.718;2022-08-19T06:51:34;12.55;;;10.88;;
59516;SDS011;45342;42.662;27.718;2022-08-19T06:56:28;12.60;;;11.25;;
59516;SDS011;45342;42.662;27.718;2022-08-19T06:59:05;12.27;;;11.07;;
59516;SDS011;45342;42.662;27.718;2022-08-19T07:01:39;12.43;;;11.13;;
59516;SDS011;45342;42.662;27.718;2022-08-19T07:04:06;12.43;;;10.70;;
59516;SDS011;45342;42.662;27.718;2022-08-19T07:06:33;12.52;;;10.40;;
59516;SDS011;45342;42.662;27.718;2022-08-19T07:09:00;12.02;;;10.80;;
59516;SDS011;45342;42.662;27.718;2022-08-19T07:13:51;11.68;;;10.45;;
59516;SDS011;45342;42.662;27.718;2022-08-19T07:16:18;12.65;;;11.05;;
59516;SDS011;45342;42.662;27.718;2022-08-19T07:18:49;12.65;;;11.27;;
59516;SDS011;45342;42.662;27.718;2022-08-19T07:21:25;12.60;;;11.30;;
59516;SDS011;45342;42.662;27.718;2022-08-19T07:23:53;14.98;;;11.35;;
59516;SDS011;45342;42.662;27.718;2022-08-19T07:26:25;11.77;;;10.57;;
59516;SDS011;45342;42.662;27.718;2022-08-19T07:28:55;12.82;;;10.80;;
59516;SDS011;45342;42.662;27.718;2022-08-19T07:31:23;14.32;;;11.25;;
59516;SDS011;45342;42.662;27.718;2022-08-19T07:33:51;11.82;;;10.55;;
59516;SDS011;45342;42.662;27.718;2022-08-19T07:36:21;12.43;;;11.10;;
59516;SDS011;45342;42.662;27.718;2022-08-19T07:38:49;13.02;;;10.75;;
59516;SDS011;45342;42.662;27.718;2022-08-19T07:41:18;14.85;;;10.85;;
59516;SDS011;45342;42.662;27.718;2022-08-19T07:43:49;12.38;;;10.52;;
59516;SDS011;45342;42.662;27.718;2022-08-19T07:46:27;13.75;;;11.43;;
59516;SDS011;45342;42.662;27.718;2022-08-19T07:48:53;12.23;;;10.23;;
59516;SDS011;45342;42.662;27.718;2022-08-19T07:53:46;13.05;;;10.82;;
59516;SDS011;45342;42.662;27.718;2022-08-19T07:56:14;16.10;;;11.93;;
59516;SDS011;45342;42.662;27.718;2022-08-19T07:58:41;13.05;;;11.10;;
59516;SDS011;45342;42.662;27.718;2022-08-19T08:01:10;14.15;;;11.35;;
59516;SDS011;45342;42.662;27.718;2022-08-19T08:03:37;15.88;;;10.90;;
59516;SDS011;45342;42.662;27.718;2022-08-19T08:06:22;13.02;;;10.88;;
59516;SDS011;45342;42.662;27.718;2022-08-19T08:09:06;19.17;;;12.57;;
59516;SDS011;45342;42.662;27.718;2022-08-19T08:11:53;19.58;;;12.40;;
59516;SDS011;45342;42.662;27.718;2022-08-19T08:14:25;17.13;;;12.35;;
59516;SDS011;45342;42.662;27.718;2022-08-19T08:16:53;15.45;;;11.07;;
59516;SDS011;45342;42.662;27.718;2022-08-19T08:19:20;15.10;;;11.43;;
59516;SDS011;45342;42.662;27.718;2022-08-19T08:21:48;14.57;;;11.30;;
59516;SDS011;45342;42.662;27.718;2022-08-19T08:24:15;14.88;;;11.32;;
59516;SDS011;45342;42.662;27.718;2022-08-19T08:26:43;14.60;;;10.82;;
59516;SDS011;45342;42.662;27.718;2022-08-19T08:29:11;12.70;;;11.38;;
59516;SDS011;45342;42.662;27.718;2022-08-19T08:31:39;13.32;;;11.05;;
59516;SDS011;45342;42.662;27.718;2022-08-19T08:34:05;14.70;;;11.52;;
59516;SDS011;45342;42.662;27.718;2022-08-19T08:36:32;11.15;;;10.00;;
59516;SDS011;45342;42.662;27.718;2022-08-19T08:38:59;13.23;;;11.23;;
59516;SDS011;45342;42.662;27.718;2022-08-19T08:41:34;13.95;;;11.48;;
59516;SDS011;45342;42.662;27.718;2022-08-19T08:44:41;16.73;;;11.55;;
59516;SDS011;45342;42.662;27.718;2022-08-19T08:47:09;11.95;;;10.75;;
59516;SDS011;45342;42.662;27.718;2022-08-19T08:49:49;12.95;;;10.73;;
59516;SDS011;45342;42.662;27.718;2022-08-19T08:52:24;14.00;;;10.85;;
59516;SDS011;45342;42.662;27.718;2022-08-19T08:54:53;12.47;;;11.17;;
59516;SDS011;45342;42.662;27.718;2022-08-19T08:57:26;11.95;;;10.70;;
59516;SDS011;45342;42.662;27.718;2022-08-19T08:59:54;13.65;;;10.93;;
59516;SDS011;45342;42.662;27.718;2022-08-19T09:02:23;14.68;;;10.73;;
59516;SDS011;45342;42.662;27.718;2022-08-19T09:04:49;11.95;;;10.65;;
59516;SDS011;45342;42.662;27.718;2022-08-19T09:09:54;14.02;;;10.85;;
59516;SDS011;45342;42.662;27.718;2022-08-19T09:12:43;13.77;;;10.57;;
59516;SDS011;45342;42.662;27.718;2022-08-19T09:15:29;13.35;;;10.50;;
59516;SDS011;45342;42.662;27.718;2022-08-19T09:18:01;13.98;;;10.85;;
59516;SDS011;45342;42.662;27.718;2022-08-19T09:20:28;13.77;;;10.68;;
59516;SDS011;45342;42.662;27.718;2022-08-19T09:25:20;11.98;;;10.63;;
59516;SDS011;45342;42.662;27.718;2022-08-19T09:27:48;13.02;;;10.93;;
59516;SDS011;45342;42.662;27.718;2022-08-19T09:30:19;12.35;;;10.73;;
59516;SDS011;45342;42.662;27.718;2022-08-19T09:32:47;13.48;;;10.95;;
59516;SDS011;45342;42.662;27.718;2022-08-19T09:35:13;13.20;;;11.10;;
59516;SDS011;45342;42.662;27.718;2022-08-19T09:37:40;14.48;;;10.63;;
59516;SDS011;45342;42.662;27.718;2022-08-19T09:40:08;13.48;;;10.60;;
59516;SDS011;45342;42.662;27.718;2022-08-19T09:42:34;12.63;;;10.55;;
59516;SDS011;45342;42.662;27.718;2022-08-19T09:47:26;13.63;;;11.07;;
59516;SDS011;45342;42.662;27.718;2022-08-19T09:49:51;14.32;;;11.35;;
59516;SDS011;45342;42.662;27.718;2022-08-19T09:54:43;12.40;;;10.75;;
59516;SDS011;45342;42.662;27.718;2022-08-19T09:57:09;11.95;;;10.43;;
59516;SDS011;45342;42.662;27.718;2022-08-19T09:59:35;13.60;;;11.32;;
59516;SDS011;45342;42.662;27.718;2022-08-19T10:02:01;12.50;;;10.95;;
59516;SDS011;45342;42.662;27.718;2022-08-19T10:04:27;12.55;;;10.40;;
59516;SDS011;45342;42.662;27.718;2022-08-19T10:07:13;13.43;;;10.52;;
59516;SDS011;45342;42.662;27.718;2022-08-19T10:12:06;13.32;;;10.70;;
59516;SDS011;45342;42.662;27.718;2022-08-19T10:14:32;12.57;;;10.98;;
59516;SDS011;45342;42.662;27.718;2022-08-19T10:16:58;12.30;;;10.55;;
59516;SDS011;45342;42.662;27.718;2022-08-19T10:19:25;11.35;;;10.18;;
59516;SDS011;45342;42.662;27.718;2022-08-19T10:21:53;12.32;;;10.75;;
59516;SDS011;45342;42.662;27.718;2022-08-19T10:24:19;13.50;;;11.43;;
59516;SDS011;45342;42.662;27.718;2022-08-19T10:26:45;12.50;;;10.95;;
59516;SDS011;45342;42.662;27.718;2022-08-19T10:29:13;11.60;;;10.40;;
59516;SDS011;45342;42.662;27.718;2022-08-19T10:31:41;12.40;;;10.52;;
59516;SDS011;45342;42.662;27.718;2022-08-19T10:34:06;12.07;;;10.88;;
59516;SDS011;45342;42.662;27.718;2022-08-19T10:39:05;12.75;;;10.48;;
59516;SDS011;45342;42.662;27.718;2022-08-19T10:41:33;11.73;;;10.38;;
59516;SDS011;45342;42.662;27.718;2022-08-19T10:44:01;12.50;;;10.30;;
59516;SDS011;45342;42.662;27.718;2022-08-19T10:46:29;12.52;;;10.80;;
59516;SDS011;45342;42.662;27.718;2022-08-19T10:48:58;11.48;;;10.25;;
59516;SDS011;45342;42.662;27.718;2022-08-19T10:51:25;13.55;;;10.93;;
59516;SDS011;45342;42.662;27.718;2022-08-19T10:54:09;13.15;;;9.95;;
59516;SDS011;45342;42.662;27.718;2022-08-19T10:56:35;11.75;;;10.40;;
59516;SDS011;45342;42.662;27.718;2022-08-19T10:59:20;11.88;;;10.60;;
59516;SDS011;45342;42.662;27.718;2022-08-19T11:01:47;11.88;;;10.63;;
59516;SDS011;45342;42.662;27.718;2022-08-19T11:04:14;13.18;;;10.95;;
59516;SDS011;45342;42.662;27.718;2022-08-19T11:06:43;11.75;;;10.55;;
59516;SDS011;45342;42.662;27.718;2022-08-19T11:09:16;11.48;;;10.10;;
59516;SDS011;45342;42.662;27.718;2022-08-19T11:11:43;12.48;;;10.38;;
59516;SDS011;45342;42.662;27.718;2022-08-19T11:14:11;11.75;;;10.20;;
59516;SDS011;45342;42.662;27.718;2022-08-19T11:16:39;13.63;;;10.70;;
59516;SDS011;45342;42.662;27.718;2022-08-19T11:19:06;11.88;;;10.50;;
59516;SDS011;45342;42.662;27.718;2022-08-19T11:21:37;12.63;;;11.20;;
59516;SDS011;45342;42.662;27.718;2022-08-19T11:24:08;14.27;;;11.02;;
59516;SDS011;45342;42.662;27.718;2022-08-19T11:26:35;10.95;;;9.85;;
59516;SDS011;45342;42.662;27.718;2022-08-19T11:29:02;12.00;;;10.70;;
59516;SDS011;45342;42.662;27.718;2022-08-19T11:31:30;12.50;;;10.80;;
59516;SDS011;45342;42.662;27.718;2022-08-19T11:33:57;12.43;;;10.65;;
59516;SDS011;45342;42.662;27.718;2022-08-19T11:36:25;11.93;;;10.52;;
59516;SDS011;45342;42.662;27.718;2022-08-19T11:38:51;13.68;;;10.27;;
59516;SDS011;45342;42.662;27.718;2022-08-19T11:41:18;12.40;;;10.90;;
59516;SDS011;45342;42.662;27.718;2022-08-19T11:43:48;12.32;;;10.93;;
59516;SDS011;45342;42.662;27.718;2022-08-19T11:46:15;12.35;;;11.05;;
59516;SDS011;45342;42.662;27.718;2022-08-19T11:48:41;12.50;;;10.43;;
59516;SDS011;45342;42.662;27.718;2022-08-19T11:51:11;12.63;;;10.85;;
59516;SDS011;45342;42.662;27.718;2022-08-19T11:53:39;12.07;;;10.40;;
59516;SDS011;45342;42.662;27.718;2022-08-19T11:56:05;14.05;;;10.50;;
59516;SDS011;45342;42.662;27.718;2022-08-19T11:58:31;11.27;;;10.10;;
59516;SDS011;45342;42.662;27.718;2022-08-19T12:00:57;11.93;;;10.73;;
59516;SDS011;45342;42.662;27.718;2022-08-19T12:03:23;12.02;;;10.80;;
59516;SDS011;45342;42.662;27.718;2022-08-19T12:05:49;13.23;;;11.30;;
59516;SDS011;45342;42.662;27.718;2022-08-19T12:08:15;12.00;;;10.85;;
59516;SDS011;45342;42.662;27.718;2022-08-19T12:10:42;13.68;;;10.32;;
59516;SDS011;45342;42.662;27.718;2022-08-19T12:13:11;12.93;;;10.45;;
59516;SDS011;45342;42.662;27.718;2022-08-19T12:15:40;11.15;;;10.05;;
59516;SDS011;45342;42.662;27.718;2022-08-19T12:18:06;12.07;;;10.45;;
59516;SDS011;45342;42.662;27.718;2022-08-19T12:20:36;11.95;;;10.32;;
59516;SDS011;45342;42.662;27.718;2022-08-19T12:23:03;12.70;;;9.82;;
59516;SDS011;45342;42.662;27.718;2022-08-19T12:25:29;11.80;;;10.10;;
59516;SDS011;45342;42.662;27.718;2022-08-19T12:27:56;11.43;;;10.23;;
59516;SDS011;45342;42.662;27.718;2022-08-19T12:30:21;11.13;;;9.93;;
59516;SDS011;45342;42.662;27.718;2022-08-19T12:32:47;12.07;;;10.70;;
59516;SDS011;45342;42.662;27.718;2022-08-19T12:35:13;12.27;;;9.80;;
59516;SDS011;45342;42.662;27.718;2022-08-19T12:37:38;11.52;;;10.05;;
59516;SDS011;45342;42.662;27.718;2022-08-19T12:40:09;12.82;;;10.18;;
59516;SDS011;45342;42.662;27.718;2022-08-19T12:42:37;11.20;;;10.10;;
59516;SDS011;45342;42.662;27.718;2022-08-19T12:45:08;11.75;;;9.90;;
59516;SDS011;45342;42.662;27.718;2022-08-19T12:47:34;12.55;;;9.95;;
59516;SDS011;45342;42.662;27.718;2022-08-19T12:50:00;12.23;;;10.10;;
59516;SDS011;45342;42.662;27.718;2022-08-19T12:52:26;11.40;;;10.13;;
59516;SDS011;45342;42.662;27.718;2022-08-19T12:54:54;13.35;;;10.50;;
59516;SDS011;45342;42.662;27.718;2022-08-19T12:57:21;12.27;;;10.63;;
59516;SDS011;45342;42.662;27.718;2022-08-19T12:59:47;10.68;;;9.57;;
59516;SDS011;45342;42.662;27.718;2022-08-19T13:02:18;12.15;;;10.35;;
59516;SDS011;45342;42.662;27.718;2022-08-19T13:04:45;12.27;;;10.27;;
59516;SDS011;45342;42.662;27.718;2022-08-19T13:07:11;12.10;;;9.93;;
59516;SDS011;45342;42.662;27.718;2022-08-19T13:09:37;12.00;;;10.05;;
59516;SDS011;45342;42.662;27.718;2022-08-19T13:12:05;12.73;;;10.55;;
59516;SDS011;45342;42.662;27.718;2022-08-19T13:14:35;12.00;;;9.93;;
59516;SDS011;45342;42.662;27.718;2022-08-19T13:17:01;13.88;;;10.23;;
59516;SDS011;45342;42.662;27.718;2022-08-19T13:19:27;12.05;;;10.32;;
59516;SDS011;45342;42.662;27.718;2022-08-19T13:21:53;11.55;;;10.35;;
59516;SDS011;45342;42.662;27.718;2022-08-19T13:24:20;11.88;;;10.40;;
59516;SDS011;45342;42.662;27.718;2022-08-19T13:26:46;13.70;;;10.50;;
59516;SDS011;45342;42.662;27.718;2022-08-19T13:29:13;12.32;;;9.85;;
59516;SDS011;45342;42.662;27.718;2022-08-19T13:31:57;11.63;;;10.10;;
59516;SDS011;45342;42.662;27.718;2022-08-19T13:34:42;13.43;;;10.30;;
59516;SDS011;45342;42.662;27.718;2022-08-19T13:37:07;12.68;;;10.45;;
59516;SDS011;45342;42.662;27.718;2022-08-19T13:39:34;10.63;;;9.55;;
59516;SDS011;45342;42.662;27.718;2022-08-19T13:42:00;12.10;;;9.98;;
59516;SDS011;45342;42.662;27.718;2022-08-19T13:44:26;11.88;;;9.80;;
59516;SDS011;45342;42.662;27.718;2022-08-19T13:46:55;11.27;;;10.07;;
59516;SDS011;45342;42.662;27.718;2022-08-19T13:49:34;12.73;;;9.95;;
59516;SDS011;45342;42.662;27.718;2022-08-19T13:52:02;10.60;;;9.25;;
59516;SDS011;45342;42.662;27.718;2022-08-19T13:54:28;12.38;;;9.65;;
59516;SDS011;45342;42.662;27.718;2022-08-19T13:56:54;10.38;;;9.27;;
59516;SDS011;45342;42.662;27.718;2022-08-19T13:59:20;12.63;;;10.07;;
59516;SDS011;45342;42.662;27.718;2022-08-19T14:01:45;11.82;;;10.00;;
59516;SDS011;45342;42.662;27.718;2022-08-19T14:04:11;11.82;;;10.25;;
59516;SDS011;45342;42.662;27.718;2022-08-19T14:06:36;12.07;;;10.25;;
59516;SDS011;45342;42.662;27.718;2022-08-19T14:09:02;13.88;;;10.18;;
59516;SDS011;45342;42.662;27.718;2022-08-19T14:11:28;11.10;;;9.95;;
59516;SDS011;45342;42.662;27.718;2022-08-19T14:13:54;11.90;;;9.93;;
59516;SDS011;45342;42.662;27.718;2022-08-19T14:16:20;10.85;;;9.48;;
59516;SDS011;45342;42.662;27.718;2022-08-19T14:18:47;12.98;;;9.68;;
59516;SDS011;45342;42.662;27.718;2022-08-19T14:21:16;10.98;;;9.65;;
59516;SDS011;45342;42.662;27.718;2022-08-19T14:23:45;13.13;;;9.70;;
59516;SDS011;45342;42.662;27.718;2022-08-19T14:26:29;10.80;;;9.32;;
59516;SDS011;45342;42.662;27.718;2022-08-19T14:28:55;10.80;;;9.65;;
59516;SDS011;45342;42.662;27.718;2022-08-19T14:31:22;11.88;;;9.80;;
59516;SDS011;45342;42.662;27.718;2022-08-19T14:33:48;12.40;;;9.73;;
59516;SDS011;45342;42.662;27.718;2022-08-19T14:36:15;11.27;;;9.38;;
59516;SDS011;45342;42.662;27.718;2022-08-19T14:38:42;13.60;;;10.02;;
59516;SDS011;45342;42.662;27.718;2022-08-19T14:43:41;11.48;;;8.65;;
59516;SDS011;45342;42.662;27.718;2022-08-19T14:46:07;10.82;;;9.48;;
59516;SDS011;45342;42.662;27.718;2022-08-19T14:48:35;11.75;;;9.80;;
59516;SDS011;45342;42.662;27.718;2022-08-19T14:51:03;11.35;;;9.35;;
59516;SDS011;45342;42.662;27.718;2022-08-19T14:53:29;9.77;;;8.70;;
59516;SDS011;45342;42.662;27.718;2022-08-19T14:55:55;10.63;;;9.55;;
59516;SDS011;45342;42.662;27.718;2022-08-19T14:58:20;11.70;;;9.68;;
59516;SDS011;45342;42.662;27.718;2022-08-19T15:00:47;12.25;;;9.98;;
59516;SDS011;45342;42.662;27.718;2022-08-19T15:03:13;10.52;;;9.45;;
59516;SDS011;45342;42.662;27.718;2022-08-19T15:05:39;10.25;;;9.25;;
59516;SDS011;45342;42.662;27.718;2022-08-19T15:08:04;11.88;;;9.23;;
59516;SDS011;45342;42.662;27.718;2022-08-19T15:10:30;10.32;;;9.23;;
59516;SDS011;45342;42.662;27.718;2022-08-19T15:12:56;11.43;;;9.48;;
59516;SDS011;45342;42.662;27.718;2022-08-19T15:15:23;12.50;;;10.00;;
59516;SDS011;45342;42.662;27.718;2022-08-19T15:17:49;11.50;;;9.77;;
59516;SDS011;45342;42.662;27.718;2022-08-19T15:20:16;10.95;;;9.85;;
59516;SDS011;45342;42.662;27.718;2022-08-19T15:22:43;11.52;;;9.73;;
59516;SDS011;45342;42.662;27.718;2022-08-19T15:25:10;10.60;;;9.20;;
59516;SDS011;45342;42.662;27.718;2022-08-19T15:27:36;12.57;;;9.93;;
59516;SDS011;45342;42.662;27.718;2022-08-19T15:30:04;13.30;;;10.27;;
59516;SDS011;45342;42.662;27.718;2022-08-19T15:32:30;11.30;;;10.00;;
59516;SDS011;45342;42.662;27.718;2022-08-19T15:34:56;10.35;;;9.18;;
59516;SDS011;45342;42.662;27.718;2022-08-19T15:37:34;11.18;;;9.15;;
59516;SDS011;45342;42.662;27.718;2022-08-19T15:40:00;10.57;;;9.07;;
59516;SDS011;45342;42.662;27.718;2022-08-19T15:42:26;10.15;;;8.85;;
59516;SDS011;45342;42.662;27.718;2022-08-19T15:44:52;10.80;;;9.27;;